createdAt,value
2019-05-01T00:01:55.437Z,24.27
2019-05-01T00:04:37.972Z,22.00
2019-05-01T00:07:13.303Z,22.67
2019-05-01T00:09:41.687Z,24.43
2019-05-01T00:12:11.192Z,22.83
2019-05-01T00:14:39.856Z,22.30
2019-05-01T00:17:08.588Z,23.50
2019-05-01T00:19:37.239Z,24.33
2019-05-01T00:22:05.928Z,23.03
2019-05-01T00:24:34.652Z,26.27
2019-05-01T00:27:03.299Z,23.93
2019-05-01T00:29:32.037Z,23.23
2019-05-01T00:32:00.390Z,27.83
2019-05-01T00:34:28.951Z,27.33
2019-05-01T00:36:58.358Z,26.00
2019-05-01T00:39:26.952Z,24.87
2019-05-01T00:41:55.612Z,27.63
2019-05-01T00:44:25.538Z,24.17
2019-05-01T00:46:53.934Z,25.50
2019-05-01T00:49:22.758Z,25.33
2019-05-01T00:51:51.514Z,25.60
2019-05-01T00:54:20.298Z,23.33
2019-05-01T00:57:08.404Z,25.33
2019-05-01T01:00:05.769Z,28.63
2019-05-01T01:02:40.499Z,25.20
2019-05-01T01:05:09.624Z,27.53
2019-05-01T01:07:38.385Z,26.37
2019-05-01T01:10:08.522Z,24.77
2019-05-01T01:12:37.221Z,26.53
2019-05-01T01:15:06.186Z,26.13
2019-05-01T01:17:41.687Z,24.80
2019-05-01T01:20:11.439Z,27.47
2019-05-01T01:22:39.943Z,27.33
2019-05-01T01:25:08.804Z,24.13
2019-05-01T01:27:37.291Z,25.13
2019-05-01T01:30:08.051Z,27.30
2019-05-01T01:32:36.735Z,26.07
2019-05-01T01:35:05.703Z,29.27
2019-05-01T01:37:34.520Z,25.43
2019-05-01T01:40:03.289Z,24.63
2019-05-01T01:42:31.964Z,25.50
2019-05-01T01:45:09.859Z,23.80
2019-05-01T01:47:58.104Z,25.33
2019-05-01T01:50:26.597Z,25.00
2019-05-01T01:52:55.479Z,25.87
2019-05-01T01:55:24.451Z,24.33
2019-05-01T01:57:53.779Z,25.80
2019-05-01T02:00:25.549Z,27.23
2019-05-01T02:02:57.905Z,27.23
2019-05-01T02:05:30.706Z,29.30
2019-05-01T02:07:59.286Z,26.10
2019-05-01T02:10:41.819Z,29.27
2019-05-01T02:12:58.264Z,29.07
2019-05-01T02:15:26.681Z,28.77
2019-05-01T02:17:55.439Z,28.27
2019-05-01T02:20:23.833Z,25.67
2019-05-01T02:22:52.637Z,26.10
2019-05-01T02:25:21.994Z,30.13
2019-05-01T02:28:09.644Z,26.90
2019-05-01T02:30:40.457Z,26.23
2019-05-01T02:33:11.375Z,26.40
2019-05-01T02:35:41.304Z,28.10
2019-05-01T02:38:12.216Z,28.07
2019-05-01T02:40:50.936Z,26.53
2019-05-01T02:43:21.535Z,27.33
2019-05-01T02:45:57.158Z,28.07
2019-05-01T02:48:28.040Z,29.23
2019-05-01T02:51:00.246Z,27.27
2019-05-01T02:53:32.532Z,28.50
2019-05-01T02:56:21.081Z,29.97
2019-05-01T02:58:52.426Z,27.20
2019-05-01T03:01:21.838Z,29.53
2019-05-01T03:03:51.951Z,29.67
2019-05-01T03:06:20.766Z,32.20
2019-05-01T03:08:52.924Z,30.73
2019-05-01T03:11:21.328Z,27.97
2019-05-01T03:13:52.611Z,28.43
2019-05-01T03:16:22.034Z,29.23
2019-05-01T03:18:53.702Z,29.37
2019-05-01T03:21:31.777Z,30.60
2019-05-01T03:24:12.972Z,31.10
2019-05-01T03:26:42.041Z,29.57
2019-05-01T03:29:10.877Z,30.70
2019-05-01T03:31:39.577Z,26.30
2019-05-01T03:34:08.653Z,29.17
2019-05-01T03:36:37.707Z,31.23
2019-05-01T03:39:06.545Z,29.40
2019-05-01T03:41:35.539Z,29.87
2019-05-01T03:44:04.697Z,31.00
2019-05-01T03:46:34.617Z,28.77
2019-05-01T03:49:03.843Z,29.47
2019-05-01T03:51:32.715Z,29.27
2019-05-01T03:54:01.768Z,29.47
2019-05-01T03:56:31.042Z,29.50
2019-05-01T03:59:00.106Z,26.87
2019-05-01T04:01:36.577Z,30.17
2019-05-01T04:04:25.006Z,35.30
2019-05-01T04:06:53.839Z,30.70
2019-05-01T04:09:22.599Z,29.20
2019-05-01T04:11:51.295Z,28.53
2019-05-01T04:14:20.292Z,26.97
2019-05-01T04:16:52.521Z,33.30
2019-05-01T04:19:21.461Z,29.87
2019-05-01T04:21:55.728Z,29.57
2019-05-01T04:24:24.718Z,29.23
2019-05-01T04:26:53.333Z,27.70
2019-05-01T04:29:30.146Z,29.77
2019-05-01T04:32:14.279Z,28.33
2019-05-01T04:35:05.378Z,30.67
2019-05-01T04:37:33.871Z,29.83
2019-05-01T04:40:02.537Z,30.40
2019-05-01T04:42:31.508Z,30.10
2019-05-01T04:45:00.420Z,30.73
2019-05-01T04:47:35.186Z,31.10
2019-05-01T04:50:03.768Z,29.27
2019-05-01T04:52:32.919Z,30.30
2019-05-01T04:55:01.853Z,31.80
2019-05-01T04:57:30.722Z,32.20
2019-05-01T04:59:59.602Z,32.53
2019-05-01T05:02:35.346Z,28.73
2019-05-01T05:05:04.454Z,29.63
2019-05-01T05:07:33.232Z,29.67
2019-05-01T05:10:02.362Z,30.87
2019-05-01T05:12:59.296Z,32.87
2019-05-01T05:15:47.530Z,32.50
2019-05-01T05:18:16.327Z,30.63
2019-05-01T05:20:44.802Z,27.63
2019-05-01T05:23:13.521Z,30.53
2019-05-01T05:25:42.263Z,28.80
2019-05-01T05:28:11.345Z,29.73
2019-05-01T05:30:42.316Z,30.33
2019-05-01T05:33:18.117Z,31.83
2019-05-01T05:35:44.131Z,31.73
2019-05-01T05:38:33.399Z,30.87
2019-05-01T05:41:03.348Z,30.87
2019-05-01T05:43:33.280Z,34.37
2019-05-01T05:46:02.266Z,32.43
2019-05-01T05:48:32.087Z,32.00
2019-05-01T05:51:18.448Z,29.57
2019-05-01T05:53:51.834Z,31.33
2019-05-01T05:56:26.764Z,32.47
2019-05-01T05:59:01.118Z,29.97
2019-05-01T06:01:54.144Z,31.87
2019-05-01T06:04:51.442Z,32.80
2019-05-01T06:07:40.620Z,34.00
2019-05-01T06:10:23.295Z,31.03
2019-05-01T06:13:21.913Z,31.50
2019-05-01T06:16:23.589Z,30.83
2019-05-01T06:19:09.647Z,32.90
2019-05-01T06:22:09.548Z,32.67
2019-05-01T06:24:42.386Z,32.80
2019-05-01T06:27:21.479Z,29.23
2019-05-01T06:29:54.888Z,31.73
2019-05-01T06:32:33.527Z,30.43
2019-05-01T06:35:05.803Z,32.53
2019-05-01T06:38:08.700Z,28.43
2019-05-01T06:40:44.335Z,27.93
2019-05-01T06:43:30.792Z,28.23
2019-05-01T06:46:35.219Z,29.80
2019-05-01T06:49:32.057Z,29.47
2019-05-01T06:52:08.129Z,30.50
2019-05-01T06:54:47.887Z,30.43
2019-05-01T06:57:18.950Z,33.43
2019-05-01T06:59:53.832Z,30.03
2019-05-01T07:02:34.995Z,29.20
2019-05-01T07:05:09.097Z,31.50
2019-05-01T07:07:48.074Z,30.03
2019-05-01T07:10:31.811Z,27.60
2019-05-01T07:13:05.025Z,29.53
2019-05-01T07:15:35.044Z,29.63
2019-05-01T07:18:13.205Z,31.33
2019-05-01T07:20:54.709Z,32.03
2019-05-01T07:23:26.852Z,29.07
2019-05-01T07:25:59.601Z,29.37
2019-05-01T07:28:36.986Z,31.33
2019-05-01T07:31:14.560Z,31.43
2019-05-01T07:33:51.231Z,28.80
2019-05-01T07:36:24.615Z,28.67
2019-05-01T07:39:00.147Z,32.30
2019-05-01T07:41:33.953Z,30.47
2019-05-01T07:44:36.638Z,28.93
2019-05-01T07:47:31.688Z,30.60
2019-05-01T07:50:12.208Z,31.43
2019-05-01T07:52:47.725Z,31.63
2019-05-01T07:55:38.827Z,31.77
2019-05-01T07:58:16.009Z,32.20
2019-05-01T08:01:02.422Z,29.10
2019-05-01T08:03:37.972Z,31.23
2019-05-01T08:06:16.351Z,28.60
2019-05-01T08:08:47.026Z,30.03
2019-05-01T08:11:20.530Z,33.60
2019-05-01T08:14:06.587Z,33.20
2019-05-01T08:16:37.804Z,33.40
2019-05-01T08:19:21.861Z,31.90
2019-05-01T08:22:03.075Z,33.10
2019-05-01T08:24:37.796Z,31.90
2019-05-01T08:27:28.906Z,32.33
2019-05-01T08:30:18.686Z,32.43
2019-05-01T08:33:14.533Z,32.70
2019-05-01T08:35:47.355Z,33.00
2019-05-01T08:38:29.879Z,32.80
2019-05-01T08:41:07.323Z,34.50
2019-05-01T08:43:44.523Z,34.37
2019-05-01T08:46:34.393Z,34.93
2019-05-01T08:49:20.916Z,32.37
2019-05-01T08:51:53.708Z,33.67
2019-05-01T08:54:28.868Z,34.07
2019-05-01T08:57:04.065Z,33.40
2019-05-01T08:59:36.522Z,31.70
2019-05-01T09:02:11.877Z,33.13
2019-05-01T09:04:45.056Z,34.67
2019-05-01T09:07:19.118Z,32.60
2019-05-01T09:09:52.035Z,35.10
2019-05-01T09:12:24.222Z,34.17
2019-05-01T09:15:07.135Z,34.00
2019-05-01T09:17:43.707Z,33.77
2019-05-01T09:20:17.298Z,34.00
2019-05-01T09:22:53.169Z,32.47
2019-05-01T09:25:35.310Z,33.53
2019-05-01T09:28:21.148Z,38.13
2019-05-01T09:31:02.150Z,32.77
2019-05-01T09:33:37.125Z,30.27
2019-05-01T09:36:08.050Z,35.47
2019-05-01T09:38:39.858Z,32.90
2019-05-01T09:41:11.645Z,32.60
2019-05-01T09:43:44.609Z,31.43
2019-05-01T09:46:16.495Z,33.87
2019-05-01T09:48:48.631Z,32.00
2019-05-01T09:51:56.225Z,33.87
2019-05-01T09:54:43.007Z,32.27
2019-05-01T09:57:13.380Z,31.17
2019-05-01T09:59:44.913Z,30.47
2019-05-01T10:02:16.603Z,36.23
2019-05-01T10:04:48.573Z,32.40
2019-05-01T10:07:28.825Z,33.80
2019-05-01T10:10:00.511Z,33.93
2019-05-01T10:12:31.896Z,33.70
2019-05-01T10:15:47.049Z,31.53
2019-05-01T10:18:21.103Z,33.77
2019-05-01T10:20:52.408Z,33.10
2019-05-01T10:23:24.015Z,33.77
2019-05-01T10:25:57.151Z,31.57
2019-05-01T10:28:38.857Z,33.13
2019-05-01T10:31:25.257Z,32.13
2019-05-01T10:34:16.661Z,32.40
2019-05-01T10:36:54.631Z,30.43
2019-05-01T10:39:30.278Z,29.83
2019-05-01T10:42:02.208Z,31.73
2019-05-01T10:44:40.722Z,26.37
2019-05-01T10:47:37.067Z,28.07
2019-05-01T10:50:11.984Z,27.43
2019-05-01T10:52:49.937Z,28.27
2019-05-01T10:55:23.704Z,29.40
2019-05-01T10:58:06.513Z,28.50
2019-05-01T11:00:40.391Z,25.90
2019-05-01T11:03:11.937Z,27.20
2019-05-01T11:05:55.259Z,28.47
2019-05-01T11:08:21.768Z,24.00
2019-05-01T11:10:53.210Z,26.87
2019-05-01T11:14:00.407Z,26.03
2019-05-01T11:16:35.919Z,26.27
2019-05-01T11:19:08.700Z,25.90
2019-05-01T11:21:40.404Z,24.37
2019-05-01T11:24:15.508Z,22.90
2019-05-01T11:26:46.508Z,20.80
2019-05-01T11:29:26.564Z,22.13
2019-05-01T11:32:12.702Z,22.23
2019-05-01T11:35:03.172Z,23.23
2019-05-01T11:37:43.327Z,22.27
2019-05-01T11:40:24.150Z,23.47
2019-05-01T11:42:55.765Z,25.77
2019-05-01T11:45:30.358Z,24.70
2019-05-01T11:48:07.044Z,23.73
2019-05-01T11:50:38.540Z,22.33
2019-05-01T11:53:09.825Z,25.83
2019-05-01T11:55:41.970Z,29.57
2019-05-01T11:58:26.104Z,22.80
2019-05-01T12:01:05.901Z,20.10
2019-05-01T12:04:01.698Z,24.00
2019-05-01T12:06:57.284Z,21.53
2019-05-01T12:09:58.651Z,23.50
2019-05-01T12:12:57.144Z,22.37
2019-05-01T12:15:31.961Z,21.63
2019-05-01T12:18:03.862Z,20.80
2019-05-01T12:20:35.540Z,20.67
2019-05-01T12:23:07.117Z,21.37
2019-05-01T12:25:38.369Z,20.93
2019-05-01T12:28:09.405Z,23.03
2019-05-01T12:30:44.158Z,22.33
2019-05-01T12:33:22.123Z,23.97
2019-05-01T12:35:56.679Z,23.40
2019-05-01T12:38:31.381Z,24.57
2019-05-01T12:41:35.832Z,24.17
2019-05-01T12:44:12.785Z,22.10
2019-05-01T12:46:58.102Z,21.43
2019-05-01T12:49:30.063Z,20.13
2019-05-01T12:52:10.615Z,20.43
2019-05-01T12:54:42.624Z,20.93
2019-05-01T12:57:16.099Z,20.30
2019-05-01T12:59:47.924Z,24.07
2019-05-01T13:02:24.880Z,21.90
2019-05-01T13:04:56.655Z,20.33
2019-05-01T13:07:28.119Z,20.50
2019-05-01T13:09:59.985Z,19.63
2019-05-01T13:12:34.803Z,18.53
2019-05-01T13:15:08.498Z,18.13
2019-05-01T13:17:44.331Z,16.40
2019-05-01T13:20:20.039Z,15.27
2019-05-01T13:22:54.964Z,18.97
2019-05-01T13:25:27.770Z,16.57
2019-05-01T13:28:34.101Z,17.03
2019-05-01T13:31:13.974Z,19.43
2019-05-01T13:33:46.217Z,18.93
2019-05-01T13:36:20.246Z,19.97
2019-05-01T13:38:52.974Z,17.47
2019-05-01T13:41:24.731Z,16.97
2019-05-01T13:43:56.433Z,16.50
2019-05-01T13:46:27.307Z,18.13
2019-05-01T13:48:59.781Z,19.03
2019-05-01T13:51:31.521Z,20.13
2019-05-01T13:54:08.764Z,20.80
2019-05-01T13:56:40.970Z,21.53
2019-05-01T13:59:14.507Z,19.83
2019-05-01T14:01:46.528Z,24.00
2019-05-01T14:04:18.038Z,22.03
2019-05-01T14:06:49.215Z,18.43
2019-05-01T14:09:38.871Z,16.53
2019-05-01T14:12:12.341Z,17.83
2019-05-01T14:14:50.975Z,15.67
2019-05-01T14:17:23.350Z,14.10
2019-05-01T14:20:05.794Z,14.63
2019-05-01T14:22:59.687Z,13.20
2019-05-01T14:25:52.105Z,13.90
2019-05-01T14:28:25.222Z,14.27
2019-05-01T14:31:01.312Z,11.20
2019-05-01T14:33:32.987Z,11.57
2019-05-01T14:36:09.256Z,10.27
2019-05-01T14:38:41.619Z,9.47
2019-05-01T14:41:25.756Z,10.30
2019-05-01T14:43:59.396Z,11.23
2019-05-01T14:46:32.310Z,9.47
2019-05-01T14:49:06.956Z,10.27
2019-05-01T14:51:48.178Z,10.83
2019-05-01T14:54:23.330Z,11.63
2019-05-01T14:57:14.828Z,11.67
2019-05-01T14:59:49.693Z,13.13
2019-05-01T15:02:30.641Z,10.33
2019-05-01T15:05:06.916Z,10.23
2019-05-01T15:07:43.549Z,10.00
2019-05-01T15:10:14.564Z,9.63
2019-05-01T15:12:48.112Z,11.27
2019-05-01T15:15:42.637Z,8.90
2019-05-01T15:18:43.209Z,9.93
2019-05-01T15:21:14.708Z,8.57
2019-05-01T15:23:53.658Z,8.83
2019-05-01T15:26:26.285Z,9.87
2019-05-01T15:29:04.420Z,7.67
2019-05-01T15:31:35.802Z,10.90
2019-05-01T15:34:07.533Z,9.70
2019-05-01T15:36:42.985Z,7.87
2019-05-01T15:39:27.004Z,9.30
2019-05-01T15:42:16.736Z,8.37
2019-05-01T15:44:49.427Z,7.80
2019-05-01T15:47:21.321Z,8.00
2019-05-01T15:50:00.016Z,6.97
2019-05-01T15:52:31.603Z,8.73
2019-05-01T15:55:08.269Z,7.97
2019-05-01T15:57:36.984Z,7.20
2019-05-01T16:00:11.707Z,10.33
2019-05-01T16:02:45.978Z,9.20
2019-05-01T16:05:19.415Z,8.30
2019-05-01T16:07:52.402Z,6.67
2019-05-01T16:10:32.510Z,6.77
2019-05-01T16:13:04.387Z,6.33
2019-05-01T16:15:35.947Z,8.60
2019-05-01T16:18:07.494Z,8.53
2019-05-01T16:20:40.025Z,7.33
2019-05-01T16:23:12.028Z,8.20
2019-05-01T16:25:46.092Z,7.57
2019-05-01T16:28:17.552Z,7.23
2019-05-01T16:30:50.437Z,8.43
2019-05-01T16:33:22.395Z,7.43
2019-05-01T16:35:55.294Z,6.40
2019-05-01T16:38:45.974Z,6.07
2019-05-01T16:41:17.350Z,8.47
2019-05-01T16:43:51.735Z,7.50
2019-05-01T16:46:23.444Z,7.27
2019-05-01T16:48:56.259Z,8.07
2019-05-01T16:51:29.707Z,8.47
2019-05-01T16:54:03.514Z,7.30
2019-05-01T16:56:35.583Z,10.07
2019-05-01T16:59:09.363Z,8.67
2019-05-01T17:01:52.105Z,9.20
2019-05-01T17:05:04.551Z,9.57
2019-05-01T17:07:47.418Z,10.50
2019-05-01T17:10:30.215Z,9.43
2019-05-01T17:13:01.480Z,9.77
2019-05-01T17:15:38.043Z,10.10
2019-05-01T17:18:10.995Z,10.27
2019-05-01T17:20:42.641Z,11.23
2019-05-01T17:23:14.451Z,10.57
2019-05-01T17:25:47.035Z,9.53
2019-05-01T17:28:21.603Z,10.63
2019-05-01T17:31:00.122Z,11.87
2019-05-01T17:33:32.759Z,10.37
2019-05-01T17:36:10.900Z,12.80
2019-05-01T17:38:49.746Z,10.97
2019-05-01T17:41:22.698Z,13.27
2019-05-01T17:43:56.869Z,11.23
2019-05-01T17:46:30.238Z,12.67
2019-05-01T17:49:04.177Z,11.60
2019-05-01T17:51:42.525Z,13.27
2019-05-01T17:54:11.882Z,12.37
2019-05-01T17:56:43.911Z,11.57
2019-05-01T17:59:15.995Z,12.57
2019-05-01T18:02:10.036Z,14.10
2019-05-01T18:04:54.649Z,12.03
2019-05-01T18:07:28.884Z,12.53
2019-05-01T18:10:02.735Z,15.20
2019-05-01T18:12:38.522Z,13.90
2019-05-01T18:15:12.600Z,16.70
2019-05-01T18:17:47.953Z,14.70
2019-05-01T18:20:20.351Z,18.73
2019-05-01T18:23:17.436Z,17.37
2019-05-01T18:26:04.860Z,17.90
2019-05-01T18:28:48.906Z,17.40
2019-05-01T18:31:27.966Z,18.00
2019-05-01T18:34:02.332Z,17.30
2019-05-01T18:36:44.417Z,19.93
2019-05-01T18:39:25.882Z,18.47
2019-05-01T18:42:17.863Z,17.97
2019-05-01T18:44:53.210Z,18.73
2019-05-01T18:47:25.593Z,17.17
2019-05-01T18:49:57.572Z,19.30
2019-05-01T18:52:29.266Z,18.33
2019-05-01T18:55:03.876Z,18.97
2019-05-01T18:57:36.555Z,18.33
2019-05-01T19:00:08.595Z,17.63
2019-05-01T19:02:42.011Z,17.17
2019-05-01T19:05:14.442Z,19.17
2019-05-01T19:07:47.802Z,30.53
2019-05-01T19:10:30.468Z,19.73
2019-05-01T19:13:04.466Z,21.53
2019-05-01T19:15:36.305Z,20.40
2019-05-01T19:18:14.865Z,19.20
2019-05-01T19:20:59.773Z,23.17
2019-05-01T19:23:38.199Z,21.80
2019-05-01T19:26:20.514Z,25.37
2019-05-01T19:29:01.519Z,23.23
2019-05-01T19:31:31.950Z,22.03
2019-05-01T19:34:04.007Z,25.10
2019-05-01T19:36:40.285Z,21.90
2019-05-01T19:39:11.794Z,24.47
2019-05-01T19:41:48.625Z,24.70
2019-05-01T19:44:20.143Z,27.23
2019-05-01T19:46:52.196Z,24.37
2019-05-01T19:49:29.224Z,26.80
2019-05-01T19:52:00.587Z,26.07
2019-05-01T19:54:35.562Z,25.93
2019-05-01T19:57:09.859Z,27.70
2019-05-01T19:59:49.207Z,28.53
2019-05-01T20:02:22.193Z,30.63
2019-05-01T20:04:54.407Z,28.47
2019-05-01T20:07:26.316Z,29.37
2019-05-01T20:09:58.422Z,32.67
2019-05-01T20:12:30.078Z,30.17
2019-05-01T20:15:03.222Z,31.80
2019-05-01T20:17:37.691Z,29.97
2019-05-01T20:20:10.204Z,31.20
2019-05-01T20:22:42.336Z,29.43
2019-05-01T20:25:14.644Z,30.00
2019-05-01T20:27:47.740Z,28.73
2019-05-01T20:30:16.512Z,31.60
2019-05-01T20:32:45.909Z,33.23
2019-05-01T20:35:17.609Z,33.43
2019-05-01T20:37:48.191Z,33.83
2019-05-01T20:40:17.971Z,30.93
2019-05-01T20:42:47.201Z,32.67
2019-05-01T20:45:19.519Z,32.47
2019-05-01T20:47:50.076Z,30.90
2019-05-01T20:50:20.287Z,31.57
2019-05-01T20:52:48.792Z,34.03
2019-05-01T20:55:17.668Z,34.60
2019-05-01T20:57:46.704Z,36.20
2019-05-01T21:00:17.059Z,31.70
2019-05-01T21:02:47.050Z,30.73
2019-05-01T21:05:24.364Z,33.20
2019-05-01T21:08:12.364Z,32.53
2019-05-01T21:10:51.226Z,35.77
2019-05-01T21:13:23.316Z,33.70
2019-05-01T21:15:50.060Z,31.27
2019-05-01T21:18:20.826Z,31.97
2019-05-01T21:20:49.689Z,38.33
2019-05-01T21:23:18.273Z,33.03
2019-05-01T21:25:46.960Z,34.63
2019-05-01T21:28:16.694Z,32.53
2019-05-01T21:30:47.506Z,29.93
2019-05-01T21:33:16.492Z,32.10
2019-05-01T21:35:45.208Z,36.57
2019-05-01T21:38:14.068Z,35.77
2019-05-01T21:40:43.834Z,33.47
2019-05-01T21:43:13.611Z,33.63
2019-05-01T21:45:43.390Z,34.80
2019-05-01T21:48:13.526Z,37.77
2019-05-01T21:50:43.856Z,39.67
2019-05-01T21:53:12.932Z,36.13
2019-05-01T21:55:41.991Z,37.13
2019-05-01T21:58:10.341Z,38.60
2019-05-01T22:00:39.970Z,38.17
2019-05-01T22:03:10.571Z,37.80
2019-05-01T22:05:39.708Z,37.63
2019-05-01T22:08:09.419Z,37.30
2019-05-01T22:10:50.793Z,37.97
2019-05-01T22:13:08.940Z,38.60
2019-05-01T22:15:46.636Z,40.13
2019-05-01T22:18:26.285Z,39.27
2019-05-01T22:21:07.810Z,35.83
2019-05-01T22:23:55.928Z,38.50
2019-05-01T22:26:26.158Z,37.73
2019-05-01T22:28:57.027Z,38.73
2019-05-01T22:35:21.919Z,38.10
2019-05-01T22:37:50.305Z,35.57
2019-05-01T22:40:26.452Z,35.50
2019-05-01T22:42:55.044Z,37.10
2019-05-01T22:45:24.211Z,39.03
2019-05-01T22:47:52.650Z,35.77
2019-05-01T22:50:21.690Z,37.43
2019-05-01T22:52:50.093Z,35.40
2019-05-01T22:55:20.416Z,37.37
2019-05-01T22:57:49.403Z,35.53
2019-05-01T23:00:32.438Z,39.27
2019-05-01T23:03:05.599Z,35.60
2019-05-01T23:05:34.190Z,35.77
2019-05-01T23:08:02.729Z,34.33
2019-05-01T23:10:31.466Z,32.90
2019-05-01T23:13:00.149Z,33.63
2019-05-01T23:15:30.377Z,35.17
2019-05-01T23:17:59.162Z,29.67
2019-05-01T23:20:27.629Z,30.47
2019-05-01T23:22:56.355Z,28.90
2019-05-01T23:25:26.031Z,29.53
2019-05-01T23:27:54.721Z,28.67
2019-05-01T23:30:23.453Z,27.80
2019-05-01T23:32:52.105Z,29.47
2019-05-01T23:35:20.782Z,26.73
2019-05-01T23:37:49.696Z,28.63
2019-05-01T23:40:18.569Z,28.27
2019-05-01T23:42:52.301Z,27.23
2019-05-01T23:45:17.806Z,29.20
2019-05-01T23:47:46.462Z,28.17
2019-05-01T23:50:15.149Z,27.70
2019-05-01T23:52:43.651Z,27.87
2019-05-01T23:55:12.605Z,28.17
2019-05-01T23:57:43.187Z,27.83
